Terminal Aerodrome Forecast
Issued by NWS Wakefield, VA

Home | Current Version | Previous Version | Text Only | Print | Product List | Glossary On
Versions: 1 2 3 4 5 6 7 8 9 10 11 12 13 14 15 16 17
000
FTUS41 KAKQ 280522
TAFSBY
TAF
KSBY 280522Z 2806/2906 33007KT P6SM BKN060
      TEMPO 2806/2810 5SM BR
     FM281400 31015G23KT P6SM BKN050
     FM282300 31010KT P6SM SKC=

USA.gov is the U.S. government's official web portal to all federal, state and local government web resources and services.